Wind Surf — C6IO6 — position and weather

sailwx.info

Track history (hours):
 
Tides and Currents Weather Stations Pressure Air Temp Water Temp Dewpoint Dewpoint Depression Visibility Wind Speed Wind Dir Waves Ship Positions

Wind Surf

Operator: Holland America Line

Last reported at 2017-Mar-24 09:27 UTC. Time now 2017-Mar-24 18:00 UTC.
Position N 17°56' W 063°05'.

Length 187 m; draft 5.4 m.

Type: Passenger vessel. MMSI: 309242000.

Date/timePositionNaut miles runAvg speedWind from/ knotsBaromVisibWave heightAir tempDewpointWater temp
2017-Mar-24 09:27N 17°56' W 063°05'84 7.7
2017-Mar-23 22:33N 18°29' W 064°26'2 0.1
2017-Mar-23 00:12N 18°28' W 064°28'7 8.4
2017-Mar-22 23:22N 18°35' W 064°30'5 6.7
2017-Mar-22 22:33N 18°35' W 064°35'1211.6
2017-Mar-22 21:33N 18°26' W 064°42'2 2.3
2017-Mar-22 20:28N 18°26' W 064°45'0 0.0
2017-Mar-22 19:28N 18°26' W 064°45'0 0.0
2017-Mar-22 18:22N 18°26' W 064°45'0 0.0
2017-Mar-22 17:28N 18°26' W 064°45'0 0.0
2017-Mar-22 16:28N 18°26' W 064°45'0 0.0
2017-Mar-22 15:28N 18°26' W 064°45'0 0.0
2017-Mar-22 14:28N 18°26' W 064°45'0 0.0
2017-Mar-22 13:33N 18°26' W 064°45'0 0.1
2017-Mar-22 12:28N 18°26' W 064°45'0 0.0
2017-Mar-22 11:28N 18°26' W 064°45'0 0.0
2017-Mar-22 10:34N 18°26' W 064°45'0 0.0
2017-Mar-22 09:22N 18°26' W 064°45'0 0.0
2017-Mar-22 08:34N 18°26' W 064°45'0 0.0
2017-Mar-22 07:34N 18°26' W 064°45'0 0.0
2017-Mar-22 06:28N 18°26' W 064°45'0 0.0
2017-Mar-22 05:34N 18°26' W 064°45'0 0.0
2017-Mar-22 04:28N 18°26' W 064°45'0 0.0
2017-Mar-22 03:33N 18°26' W 064°45'0 0.0
2017-Mar-22 02:28N 18°26' W 064°45'0 0.0
2017-Mar-22 01:33N 18°26' W 064°45'0 0.0
2017-Mar-22 00:28N 18°26' W 064°45'0 0.0
2017-Mar-21 23:33N 18°26' W 064°45'3 3.3
2017-Mar-21 22:33N 18°23' W 064°45'3 2.6
2017-Mar-21 21:31N 18°23' W 064°43'0 0.0
2017-Mar-21 20:31N 18°23' W 064°43'0 0.0
2017-Mar-21 19:31N 18°23' W 064°43'0 0.0
2017-Mar-21 18:31N 18°23' W 064°43'0 0.0
2017-Mar-21 17:31N 18°23' W 064°43'0 0.0
2017-Mar-21 16:19N 18°23' W 064°43'0 0.0
2017-Mar-21 15:25N 18°23' W 064°43'0 0.0
2017-Mar-21 14:31N 18°23' W 064°43'0 0.0
2017-Mar-21 13:31N 18°23' W 064°43'0 0.0
2017-Mar-21 12:31N 18°23' W 064°43'0 0.0
2017-Mar-21 11:31N 18°23' W 064°43'3 2.8
2017-Mar-21 10:33N 18°22' W 064°40'7 7.0
2017-Mar-21 09:33N 18°22' W 064°33'153 5.6
2017-Mar-20 06:06N 17°09' W 062°12'4 6.6
2017-Mar-20 05:33N 17°07' W 062°09'7 6.7
2017-Mar-20 04:31N 17°03' W 062°02'6 6.6
2017-Mar-20 03:33N 17°00' W 061°57'7 6.6
2017-Mar-20 02:33N 16°59' W 061°50'3 3.2
2017-Mar-20 01:33N 17°00' W 061°47'0 0.0
2017-Mar-20 00:33N 17°00' W 061°47'0 0.0
2017-Mar-19 23:33N 17°00' W 061°47'0 0.0
2017-Mar-19 22:33N 17°00' W 061°47'0 0.0
2017-Mar-19 21:33N 17°00' W 061°47'0 0.0
2017-Mar-19 20:33N 17°00' W 061°47'0 0.0
2017-Mar-19 19:33N 17°00' W 061°47'0 0.0
2017-Mar-19 18:33N 17°00' W 061°47'0 0.0
2017-Mar-19 17:33N 17°00' W 061°47'0 0.0
2017-Mar-19 16:33N 17°00' W 061°47'0 0.0
2017-Mar-19 15:33N 17°00' W 061°47'0 0.0
2017-Mar-19 14:33N 17°00' W 061°47'0 0.0
2017-Mar-19 13:33N 17°00' W 061°47'0 0.0
2017-Mar-19 12:33N 17°00' W 061°47'0 0.0
2017-Mar-19 11:33N 17°00' W 061°47'3 3.1
2017-Mar-19 10:33N 16°59' W 061°50'7 6.9
2017-Mar-19 09:33N 17°01' W 061°57'7 7.3
2017-Mar-19 08:33N 17°05' W 062°03'9 9.0
2017-Mar-19 07:33N 17°11' W 062°10'9 9.4
2017-Mar-19 06:33N 17°16' W 062°18'9 9.5
2017-Mar-19 05:33N 17°22' W 062°26'10 9.4
2017-Mar-19 04:33N 17°28' W 062°34'  
2017-Mar-16 06:33N 16°47' W 062°26'10 9.3
2017-Mar-16 05:26N 16°38' W 062°20'8 8.5
2017-Mar-16 04:33N 16°32' W 062°16'9 9.0
2017-Mar-16 03:33N 16°25' W 062°10'10 8.8
2017-Mar-16 02:28N 16°17' W 062°05'24 8.4
2017-Mar-15 23:33N 15°59' W 061°48'  
Track history (hours):
 
Tides and Currents Weather Stations Pressure Air Temp Water Temp Dewpoint Dewpoint Depression Visibility Wind Speed Wind Dir Waves Ship Positions

Wind Surf

Operator: Holland America Line

Last reported at 2017-Mar-24 09:27 UTC. Time now 2017-Mar-24 18:00 UTC.
Position N 17°56' W 063°05'.

Length 187 m; draft 5.4 m.

Type: Passenger vessel. MMSI: 309242000.

Date/timePositionNaut miles runAvg speedWind from/ knotsBaromVisibWave heightAir tempDewpointWater temp
2017-Mar-24 09:27N 17°56' W 063°05'84 7.7
2017-Mar-23 22:33N 18°29' W 064°26'2 0.1
2017-Mar-23 00:12N 18°28' W 064°28'7 8.4
2017-Mar-22 23:22N 18°35' W 064°30'5 6.7
2017-Mar-22 22:33N 18°35' W 064°35'1211.6
2017-Mar-22 21:33N 18°26' W 064°42'2 2.3
2017-Mar-22 20:28N 18°26' W 064°45'0 0.0
2017-Mar-22 19:28N 18°26' W 064°45'0 0.0
2017-Mar-22 18:22N 18°26' W 064°45'0 0.0
2017-Mar-22 17:28N 18°26' W 064°45'0 0.0
2017-Mar-22 16:28N 18°26' W 064°45'0 0.0
2017-Mar-22 15:28N 18°26' W 064°45'0 0.0
2017-Mar-22 14:28N 18°26' W 064°45'0 0.0
2017-Mar-22 13:33N 18°26' W 064°45'0 0.1
2017-Mar-22 12:28N 18°26' W 064°45'0 0.0
2017-Mar-22 11:28N 18°26' W 064°45'0 0.0
2017-Mar-22 10:34N 18°26' W 064°45'0 0.0
2017-Mar-22 09:22N 18°26' W 064°45'0 0.0
2017-Mar-22 08:34N 18°26' W 064°45'0 0.0
2017-Mar-22 07:34N 18°26' W 064°45'0 0.0
2017-Mar-22 06:28N 18°26' W 064°45'0 0.0
2017-Mar-22 05:34N 18°26' W 064°45'0 0.0
2017-Mar-22 04:28N 18°26' W 064°45'0 0.0
2017-Mar-22 03:33N 18°26' W 064°45'0 0.0
2017-Mar-22 02:28N 18°26' W 064°45'0 0.0
2017-Mar-22 01:33N 18°26' W 064°45'0 0.0
2017-Mar-22 00:28N 18°26' W 064°45'0 0.0
2017-Mar-21 23:33N 18°26' W 064°45'3 3.3
2017-Mar-21 22:33N 18°23' W 064°45'3 2.6
2017-Mar-21 21:31N 18°23' W 064°43'0 0.0
2017-Mar-21 20:31N 18°23' W 064°43'0 0.0
2017-Mar-21 19:31N 18°23' W 064°43'0 0.0
2017-Mar-21 18:31N 18°23' W 064°43'0 0.0
2017-Mar-21 17:31N 18°23' W 064°43'0 0.0
2017-Mar-21 16:19N 18°23' W 064°43'0 0.0
2017-Mar-21 15:25N 18°23' W 064°43'0 0.0
2017-Mar-21 14:31N 18°23' W 064°43'0 0.0
2017-Mar-21 13:31N 18°23' W 064°43'0 0.0
2017-Mar-21 12:31N 18°23' W 064°43'0 0.0
2017-Mar-21 11:31N 18°23' W 064°43'3 2.8
2017-Mar-21 10:33N 18°22' W 064°40'7 7.0
2017-Mar-21 09:33N 18°22' W 064°33'153 5.6
2017-Mar-20 06:06N 17°09' W 062°12'4 6.6
2017-Mar-20 05:33N 17°07' W 062°09'7 6.7
2017-Mar-20 04:31N 17°03' W 062°02'6 6.6
2017-Mar-20 03:33N 17°00' W 061°57'7 6.6
2017-Mar-20 02:33N 16°59' W 061°50'3 3.2
2017-Mar-20 01:33N 17°00' W 061°47'0 0.0
2017-Mar-20 00:33N 17°00' W 061°47'0 0.0
2017-Mar-19 23:33N 17°00' W 061°47'0 0.0
2017-Mar-19 22:33N 17°00' W 061°47'0 0.0
2017-Mar-19 21:33N 17°00' W 061°47'0 0.0
2017-Mar-19 20:33N 17°00' W 061°47'0 0.0
2017-Mar-19 19:33N 17°00' W 061°47'0 0.0
2017-Mar-19 18:33N 17°00' W 061°47'0 0.0
2017-Mar-19 17:33N 17°00' W 061°47'0 0.0
2017-Mar-19 16:33N 17°00' W 061°47'0 0.0
2017-Mar-19 15:33N 17°00' W 061°47'0 0.0
2017-Mar-19 14:33N 17°00' W 061°47'0 0.0
2017-Mar-19 13:33N 17°00' W 061°47'0 0.0
2017-Mar-19 12:33N 17°00' W 061°47'0 0.0
2017-Mar-19 11:33N 17°00' W 061°47'3 3.1
2017-Mar-19 10:33N 16°59' W 061°50'7 6.9
2017-Mar-19 09:33N 17°01' W 061°57'7 7.3
2017-Mar-19 08:33N 17°05' W 062°03'9 9.0
2017-Mar-19 07:33N 17°11' W 062°10'9 9.4
2017-Mar-19 06:33N 17°16' W 062°18'9 9.5
2017-Mar-19 05:33N 17°22' W 062°26'10 9.4
2017-Mar-19 04:33N 17°28' W 062°34'  
2017-Mar-16 06:33N 16°47' W 062°26'10 9.3
2017-Mar-16 05:26N 16°38' W 062°20'8 8.5
2017-Mar-16 04:33N 16°32' W 062°16'9 9.0
2017-Mar-16 03:33N 16°25' W 062°10'10 8.8
2017-Mar-16 02:28N 16°17' W 062°05'24 8.4
2017-Mar-15 23:33N 15°59' W 061°48'  

Dump ship's entire track history